.
WxDataArchive / Data Records for 2011-06-04
2011-06-03 June 2011 2011-06-05

Data Records for Saturday, 04 June 2011

Time	Temp	Chill	HIndex	Humid	Dewpt	 Wind 	HiWind	WindDir	Rain 	Barom 
-----	----	-----	------	-----	-----	------	------	-------	-----	----- 
00:00	68.4	68.4	68.4	59	53.5	0	0	---	0.00	30.097 
00:05	68.4	68.4	68.4	59	53.5	0	0	---	0.00	30.097 
00:10	68.4	68.4	68.4	59	53.5	0	0	---	0.00	30.097 
00:15	68.3	68.3	68.3	60	53.9	0	0	---	0.00	30.090 
00:20	68.3	68.3	68.3	61	54.3	0	0	---	0.00	30.090 
00:25	67.9	67.9	67.9	61	53.9	0	0	---	0.00	30.090 
00:30	67.6	67.6	67.6	62	54.1	0	0	---	0.00	30.094 
00:35	67.4	67.4	67.4	62	53.9	0	0	---	0.00	30.094 
00:40	67.1	67.1	67.1	62	53.6	0	0	---	0.00	30.094 
00:45	66.9	66.9	66.9	63	53.9	0	0	---	0.00	30.094 
00:50	66.6	66.6	66.6	63	53.6	0	0	---	0.00	30.094 
00:55	66.4	66.4	66.4	64	53.8	0	0	---	0.00	30.094 
01:00	66.1	66.1	66.1	64	53.6	0	0	---	0.00	30.090 
01:05	66.0	66.0	66.0	65	53.9	0	0	---	0.00	30.090 
01:10	66.0	66.0	66.0	65	53.9	0	0	---	0.00	30.090 
01:15	66.0	66.0	66.0	65	53.9	0	0	---	0.00	30.086 
01:20	65.8	65.8	65.8	66	54.1	0	0	---	0.00	30.086 
01:25	65.8	65.8	65.8	66	54.1	0	0	---	0.00	30.086 
01:30	65.8	65.8	65.8	67	54.5	0	0	---	0.00	30.084 
01:35	65.6	65.6	65.6	67	54.3	0	0	---	0.00	30.084 
01:40	65.6	65.6	65.6	67	54.3	0	0	---	0.00	30.084 
01:45	65.6	65.6	65.6	67	54.3	0	0	---	0.00	30.082 
01:50	65.6	65.6	65.6	67	54.3	0	0	---	0.00	30.082 
01:55	65.5	65.5	65.5	67	54.2	0	0	---	0.00	30.082 
02:00	65.5	65.5	65.5	68	54.7	0	0	---	0.00	30.081 
02:05	65.5	65.5	65.5	68	54.7	0	0	---	0.00	30.081 
02:10	65.5	65.5	65.5	69	55.1	0	0	---	0.00	30.081 
02:15	65.5	65.5	65.5	68	54.7	0	0	---	0.00	30.076 
02:20	65.6	65.6	65.6	69	55.1	0	0	---	0.00	30.076 
02:25	65.6	65.6	65.6	68	54.7	0	0	---	0.00	30.076 
02:30	65.6	65.6	65.6	68	54.7	0	0	---	0.00	30.072 
02:35	65.6	65.6	65.6	68	54.7	0	0	---	0.00	30.072 
02:40	65.8	65.8	65.8	68	54.9	0	0	---	0.00	30.072 
02:45	65.8	65.8	65.8	68	54.9	0	0	---	0.00	30.067 
02:50	66.0	66.0	66.0	68	55.1	0	0	---	0.00	30.067 
02:55	66.0	66.0	66.0	68	55.1	0	0	---	0.00	30.067 
03:00	66.1	66.1	66.1	67	54.8	0	0	---	0.00	30.065 
03:05	66.3	66.3	66.3	68	55.4	0	1	90	0.00	30.065 
03:10	66.6	66.6	66.6	67	55.3	0	1	90	0.00	30.065 
03:15	66.9	66.9	66.9	67	55.6	0	1	90	0.00	30.061 
03:20	67.1	67.1	67.1	66	55.4	0	1	90	0.00	30.061 
03:25	67.3	67.3	67.3	66	55.5	0	0	---	0.00	30.061 
03:30	67.3	67.3	67.3	66	55.5	0	1	90	0.00	30.059 
03:35	67.3	67.3	67.3	67	56.0	0	0	---	0.00	30.059 
03:40	67.4	67.4	67.4	67	56.1	0	0	---	0.00	30.059 
03:45	67.4	67.4	67.4	66	55.6	0	1	90	0.00	30.048 
03:50	67.6	67.6	67.6	66	55.8	0	1	90	0.00	30.048 
03:55	67.6	67.6	67.6	66	55.8	0	1	90	0.00	30.048 
04:00	67.8	67.8	67.8	66	56.0	0	1	90	0.00	30.047 
04:05	67.8	67.8	67.8	66	56.0	0	1	90	0.00	30.047 
04:10	67.9	67.9	67.9	66	56.1	0	1	90	0.00	30.047 
04:15	67.9	67.9	67.9	66	56.1	0	1	90	0.00	30.049 
04:20	67.9	67.9	67.9	66	56.1	0	0	---	0.00	30.049 
04:25	67.8	67.8	67.8	66	56.0	0	1	90	0.00	30.049 
04:30	67.8	67.8	67.8	67	56.4	0	1	90	0.00	30.050 
04:35	67.8	67.8	67.8	67	56.4	0	0	---	0.00	30.050 
04:40	67.8	67.8	67.8	67	56.4	0	1	90	0.00	30.050 
04:45	67.8	67.8	67.8	67	56.4	0	1	90	0.00	30.052 
04:50	67.8	67.8	67.8	67	56.4	0	2	90	0.00	30.052 
04:55	67.8	67.8	67.8	67	56.4	0	1	90	0.00	30.052 
05:00	67.8	67.8	67.8	67	56.4	0	0	---	0.00	30.056 
05:05	67.8	67.8	67.8	68	56.8	0	1	90	0.00	30.056 
05:10	67.8	67.8	67.8	68	56.8	0	1	90	0.00	30.056 
05:15	67.8	67.8	67.8	68	56.8	0	1	90	0.00	30.055 
05:20	67.6	67.6	67.6	68	56.7	0	0	---	0.00	30.055 
05:25	67.6	67.6	67.6	69	57.1	0	1	90	0.00	30.055 
05:30	67.4	67.4	67.4	69	56.9	0	1	90	0.00	30.058 
05:35	67.4	67.4	67.4	69	56.9	0	0	---	0.00	30.058 
05:40	67.4	67.4	67.4	69	56.9	0	0	---	0.00	30.058 
05:45	67.6	67.6	67.6	69	57.1	0	0	---	0.00	30.060 
05:50	67.6	67.6	67.6	69	57.1	0	0	---	0.00	30.060 
05:55	67.8	67.8	67.8	69	57.2	0	1	90	0.00	30.060 
06:00	67.8	67.8	67.8	69	57.2	0	1	90	0.00	30.063 
06:05	67.9	67.9	67.9	69	57.3	0	0	---	0.00	30.063 
06:10	68.1	68.1	68.1	69	57.5	0	0	---	0.00	30.063 
06:15	68.3	68.3	68.3	69	57.7	0	1	90	0.00	30.066 
06:20	68.4	68.4	68.4	69	57.8	0	1	90	0.00	30.066 
06:25	68.4	68.4	68.4	68	57.4	0	1	90	0.00	30.066 
06:30	68.6	68.6	68.6	68	57.6	0	1	90	0.00	30.072 
06:35	68.8	68.8	68.8	68	57.8	0	2	90	0.00	30.072 
06:40	68.9	68.9	68.9	68	57.9	0	1	90	0.00	30.072 
06:45	68.9	68.9	68.9	67	57.5	0	2	112	0.00	30.072 
06:50	69.1	69.1	69.1	67	57.7	0	1	112	0.00	30.072 
06:55	69.1	69.1	69.1	67	57.7	0	1	112	0.00	30.072 
07:00	69.3	69.3	69.3	67	57.9	0	1	112	0.00	30.074 
07:05	69.3	69.3	69.3	68	58.3	0	1	112	0.00	30.074 
07:10	69.3	69.3	69.3	68	58.3	0	2	202	0.00	30.074 
07:15	69.4	69.4	69.4	68	58.4	0	1	202	0.00	30.068 
07:20	69.6	69.6	69.6	68	58.6	0	1	202	0.00	30.068 
07:25	69.8	69.8	69.8	67	58.3	0	2	202	0.00	30.068 
07:30	70.1	70.1	70.1	67	58.6	1	4	270	0.00	30.069 
07:35	70.4	70.4	70.4	66	58.5	0	2	270	0.00	30.069 
07:40	70.8	70.8	70.8	66	58.9	0	2	270	0.00	30.069 
07:45	70.9	70.9	70.9	66	59.0	0	2	270	0.00	30.067 
07:50	71.3	71.3	71.3	65	58.9	0	2	270	0.00	30.067 
07:55	71.6	71.6	71.6	65	59.2	1	2	270	0.00	30.067 
08:00	72.0	72.0	72.0	64	59.1	0	2	270	0.00	30.066 
08:05	72.3	72.3	72.3	63	59.0	1	3	292	0.00	30.066 
08:10	72.5	72.5	72.5	63	59.2	1	4	292	0.00	30.066 
08:15	72.8	72.8	72.8	63	59.5	1	3	315	0.00	30.064 
08:20	73.3	73.3	73.3	62	59.5	1	4	270	0.00	30.064 
08:25	73.7	73.7	73.7	62	59.9	1	3	270	0.00	30.064 
08:30	73.9	73.9	73.9	61	59.6	1	3	270	0.00	30.059 
08:35	74.2	74.2	74.2	61	59.9	1	3	270	0.00	30.059 
08:40	74.6	74.6	74.6	61	60.2	2	5	270	0.00	30.059 
08:45	74.9	74.9	74.9	61	60.5	1	4	270	0.00	30.055 
08:50	75.3	75.3	77.5	61	60.9	1	3	270	0.00	30.055 
08:55	75.6	75.6	77.7	60	60.7	1	5	248	0.00	30.055 
09:00	76.0	76.0	78.0	60	61.1	1	4	248	0.00	30.047 
09:05	76.3	76.3	78.2	61	61.8	2	4	270	0.00	30.047 
09:10	76.7	76.7	78.5	61	62.2	1	3	270	0.00	30.047 
09:15	77.0	77.0	78.8	60	62.0	1	4	248	0.00	30.045 
09:20	77.2	77.2	79.0	61	62.7	2	5	270	0.00	30.045 
09:25	77.6	77.6	79.3	60	62.6	2	4	270	0.00	30.045 
09:30	77.7	77.7	79.4	60	62.7	2	5	270	0.00	30.042 
09:35	78.1	78.1	79.8	61	63.5	2	4	270	0.00	30.042 
09:40	78.5	78.5	80.2	61	63.9	2	4	248	0.00	30.042 
09:45	78.8	78.8	80.5	61	64.2	1	4	248	0.00	30.032 
09:50	79.2	79.2	81.0	61	64.6	2	5	248	0.00	30.032 
09:55	79.4	79.4	81.2	61	64.8	3	5	270	0.00	30.032 
10:00	79.6	79.6	81.4	61	64.9	2	5	270	0.00	30.025 
10:05	79.9	79.9	82.0	63	66.2	2	4	292	0.00	30.025 
10:10	80.5	80.5	82.7	62	66.3	1	3	270	0.00	30.025 
10:15	81.1	81.1	83.3	61	66.4	2	3	270	0.00	30.024 
10:20	81.4	81.4	83.9	62	67.1	2	5	270	0.00	30.024 
10:25	81.6	81.6	84.0	61	66.8	2	5	270	0.00	30.024 
10:30	82.0	82.0	84.6	61	67.2	2	4	270	0.00	30.023 
10:35	82.4	82.4	85.2	61	67.6	2	5	270	0.00	30.023 
10:40	82.8	82.8	86.1	62	68.4	2	4	292	0.00	30.023 
10:45	83.2	83.2	86.5	61	68.3	2	4	270	0.00	30.016 
10:50	83.6	83.6	86.6	59	67.7	2	4	270	0.00	30.016 
10:55	83.8	83.8	87.2	60	68.4	2	6	248	0.00	30.016 
11:00	84.0	84.0	87.5	60	68.6	3	6	270	0.00	30.008 
11:05	84.3	84.3	88.0	60	68.9	2	4	270	0.00	30.008 
11:10	84.5	84.5	87.8	58	68.1	2	7	270	0.00	30.008 
11:15	84.7	84.7	88.4	59	68.8	2	4	270	0.00	30.006 
11:20	85.1	85.1	88.8	58	68.6	2	4	270	0.00	30.006 
11:25	85.3	85.3	89.2	58	68.8	2	3	270	0.00	30.006 
11:30	85.9	85.9	90.2	58	69.4	1	3	270	0.00	30.003 
11:35	86.1	86.1	90.2	57	69.1	2	5	270	0.00	30.003 
11:40	86.5	86.5	91.0	57	69.4	2	4	270	0.00	30.003 
11:45	86.7	86.7	91.3	57	69.6	2	6	270	0.00	30.003 
11:50	87.4	87.4	91.9	55	69.2	2	4	270	0.00	30.003 
11:55	87.4	87.4	91.9	55	69.2	3	6	270	0.00	30.003 
12:00	87.8	87.8	92.6	55	69.6	2	6	270	0.00	29.996 
12:05	88.2	88.2	93.8	56	70.5	2	5	270	0.00	29.996 
12:10	88.6	88.6	93.7	54	69.8	2	4	292	0.00	29.996 
12:15	88.8	88.8	93.7	53	69.4	2	5	270	0.00	29.994 
12:20	88.8	88.8	93.7	53	69.4	3	5	315	0.00	29.994 
12:25	89.0	89.0	94.0	53	69.6	3	5	292	0.00	29.994 
12:30	89.0	89.0	94.0	53	69.6	3	5	292	0.00	29.991 
12:35	89.0	89.0	93.6	52	69.0	4	6	270	0.00	29.991 
12:40	89.3	89.3	94.6	53	69.9	3	6	270	0.00	29.991 
12:45	89.7	89.7	94.5	51	69.1	2	4	270	0.00	29.989 
12:50	90.1	90.1	96.7	54	71.2	2	5	315	0.00	29.989 
12:55	90.3	90.3	95.6	51	69.7	2	6	248	0.00	29.989 
13:00	90.7	90.7	95.5	49	68.9	2	6	292	0.00	29.987 
13:05	90.7	90.7	95.5	49	68.9	3	5	270	0.00	29.987 
13:10	91.2	91.2	96.9	50	69.9	2	5	270	0.00	29.987 
13:15	91.4	91.4	97.3	50	70.1	2	3	292	0.00	29.982 
13:20	91.8	91.8	96.6	47	68.7	2	5	292	0.00	29.982 
13:25	91.8	91.8	96.6	47	68.7	3	7	270	0.00	29.982 
13:30	91.6	91.6	96.2	47	68.5	4	6	270	0.00	29.973 
13:35	91.6	91.6	96.7	48	69.1	3	6	270	0.00	29.973 
13:40	91.8	91.8	96.1	46	68.0	3	6	270	0.00	29.973 
13:45	91.8	91.8	97.1	48	69.3	2	4	292	0.00	29.970 
13:50	92.1	92.1	97.2	47	68.9	4	7	270	0.00	29.970 
13:55	92.3	92.3	97.0	46	68.5	3	5	292	0.00	29.970 
14:00	92.1	92.1	97.2	47	68.9	4	9	292	0.00	29.972 
14:05	92.5	92.5	97.4	46	68.7	3	6	270	0.00	29.972 
14:10	92.3	92.3	97.0	46	68.5	4	8	270	0.00	29.972 
14:15	92.5	92.5	97.4	46	68.7	3	6	270	0.00	29.970 
14:20	92.5	92.5	97.4	46	68.7	2	7	248	0.00	29.970 
14:25	92.7	92.7	97.3	45	68.2	3	5	270	0.00	29.970 
14:30	93.2	93.2	98.8	46	69.3	3	7	270	0.00	29.969 
14:35	93.4	93.4	98.6	45	68.8	2	4	270	0.00	29.969 
14:40	93.4	93.4	98.1	44	68.2	3	6	292	0.00	29.969 
14:45	93.4	93.4	98.1	44	68.2	3	6	270	0.00	29.961 
14:50	93.4	93.4	99.2	46	69.5	2	5	338	0.00	29.961 
14:55	93.6	93.6	98.5	44	68.4	3	6	270	0.00	29.961 
15:00	93.6	93.6	98.0	43	67.7	3	6	270	0.00	29.960 
15:05	93.6	93.6	98.0	43	67.7	3	6	270	0.00	29.960 
15:10	93.8	93.8	98.3	43	67.9	3	6	270	0.00	29.960 
15:15	94.3	94.3	99.3	43	68.3	3	5	292	0.00	29.954 
15:20	94.3	94.3	98.2	41	66.9	4	11	270	0.00	29.954 
15:25	94.3	94.3	98.2	41	66.9	3	6	270	0.00	29.954 
15:30	93.8	93.8	97.3	41	66.5	3	5	270	0.00	29.953 
15:35	94.0	94.0	98.2	42	67.4	3	5	270	0.00	29.953 
15:40	94.3	94.3	97.2	39	65.5	4	10	270	0.00	29.953 
15:45	94.3	94.3	98.2	41	66.9	3	6	270	0.00	29.953 
15:50	94.3	94.3	98.8	42	67.6	3	6	315	0.00	29.953 
15:55	94.5	94.5	99.1	42	67.8	3	7	270	0.00	29.953 
16:00	94.3	94.3	98.2	41	66.9	3	6	270	0.00	29.952 
16:05	93.6	93.6	97.4	42	67.0	3	6	292	0.00	29.952 
16:10	93.4	93.4	97.1	42	66.8	4	7	270	0.00	29.952 
16:15	93.6	93.6	98.0	43	67.7	2	9	292	0.00	29.941 
16:20	93.6	93.6	98.0	43	67.7	3	9	338	0.00	29.941 
16:25	93.6	93.6	98.0	43	67.7	3	7	315	0.00	29.941 
16:30	93.8	93.8	98.3	43	67.9	3	7	270	0.00	29.942 
16:35	93.8	93.8	98.3	43	67.9	3	6	292	0.00	29.942 
16:40	92.9	92.9	96.7	43	67.1	4	6	292	0.00	29.942 
16:45	92.9	92.9	97.2	44	67.7	3	5	315	0.00	29.940 
16:50	93.2	93.2	98.8	46	69.3	2	5	292	0.00	29.940 
16:55	93.6	93.6	99.6	46	69.7	2	4	292	0.00	29.940 
17:00	94.0	94.0	98.7	43	68.0	2	3	292	0.00	29.932 
17:05	94.0	94.0	98.7	43	68.0	3	6	292	0.00	29.932 
17:10	93.8	93.8	98.3	43	67.9	3	6	270	0.00	29.932 
17:15	93.8	93.8	98.9	44	68.5	1	4	292	0.00	29.923 
17:20	94.3	94.3	99.9	44	69.0	2	4	292	0.00	29.923 
17:25	94.0	94.0	98.7	43	68.0	3	7	270	0.00	29.923 
17:30	94.0	94.0	99.3	44	68.7	2	4	270	0.00	29.920 
17:35	94.0	94.0	98.7	43	68.0	2	4	315	0.00	29.920 
17:40	93.4	93.4	97.6	43	67.5	2	5	270	0.00	29.920 
17:45	92.7	92.7	97.3	45	68.2	1	3	270	0.00	29.915 
17:50	92.3	92.3	97.6	47	69.1	1	3	270	0.00	29.915 
17:55	92.1	92.1	97.7	48	69.5	0	1	270	0.00	29.915 
18:00	91.8	91.8	97.1	48	69.3	1	2	270	0.00	29.911 
18:05	91.4	91.4	96.8	49	69.5	1	3	270	0.00	29.911 
18:10	91.0	91.0	96.5	50	69.7	1	4	270	0.00	29.911 
18:15	90.5	90.5	96.0	51	69.9	0	2	292	0.00	29.912 
18:20	89.9	89.9	95.3	52	69.9	1	3	292	0.00	29.912 
18:25	89.5	89.5	95.5	54	70.6	1	2	292	0.00	29.912 
18:30	89.0	89.0	94.5	54	70.2	1	2	292	0.00	29.922 
18:35	88.8	88.8	94.5	55	70.5	1	4	292	0.00	29.922 
18:40	88.6	88.6	94.1	55	70.3	1	5	270	0.00	29.922 
18:45	88.4	88.4	94.2	56	70.7	0	2	270	0.00	29.922 
18:50	88.0	88.0	93.4	56	70.3	0	3	0	0.00	29.922 
18:55	87.6	87.6	92.6	56	69.9	0	2	315	0.00	29.922 
19:00	87.2	87.2	92.7	58	70.6	0	1	315	0.00	29.923 
19:05	87.0	87.0	92.3	58	70.4	0	2	315	0.00	29.923 
19:10	86.7	86.7	91.7	58	70.1	0	1	315	0.00	29.923 
19:15	86.5	86.5	91.3	58	69.9	0	1	315	0.00	29.946 
19:20	86.3	86.3	91.3	59	70.2	0	3	315	0.00	29.946 
19:25	86.1	86.1	90.9	59	70.1	0	2	315	0.00	29.946 
19:30	85.9	85.9	90.2	58	69.4	0	2	315	0.00	29.938 
19:35	85.9	85.9	90.6	59	69.9	0	2	315	0.00	29.938 
19:40	85.7	85.7	90.2	59	69.7	0	2	315	0.00	29.938 
19:45	85.5	85.5	89.8	59	69.5	0	2	315	0.00	29.935 
19:50	85.3	85.3	89.5	59	69.3	0	1	315	0.00	29.935 
19:55	85.1	85.1	89.1	59	69.1	1	2	315	0.00	29.935 
20:00	85.1	85.1	88.8	58	68.6	1	2	315	0.00	29.968 
20:05	85.1	85.1	88.8	58	68.6	1	3	315	0.00	29.968 
20:10	84.9	84.9	88.5	58	68.4	1	2	315	0.00	29.968 
20:15	84.7	84.7	88.4	59	68.8	2	4	315	0.00	29.986 
20:20	84.1	84.1	88.2	62	69.6	1	5	270	0.00	29.986 
20:25	83.4	83.4	87.8	65	70.4	0	1	270	0.00	29.986 
20:30	82.8	82.8	87.7	69	71.6	0	1	270	0.01	29.990 
20:35	81.8	81.8	86.5	72	71.9	0	1	270	0.00	29.990 
20:40	80.5	80.5	84.1	72	70.6	1	6	225	0.01	29.990 
20:45	78.6	78.6	81.1	74	69.6	3	6	270	0.00	30.015 
20:50	77.0	77.0	78.7	75	68.5	3	10	270	0.00	30.015 
20:55	75.4	75.4	76.3	78	68.0	2	6	292	0.01	30.015 
21:00	74.0	74.0	74.0	80	67.4	1	5	292	0.00	30.014 
21:05	73.3	73.3	73.3	81	67.1	1	2	248	0.00	30.014 
21:10	72.8	72.8	72.8	83	67.3	2	3	248	0.00	30.014 
21:15	72.5	72.5	72.5	84	67.4	1	4	248	0.00	30.001 
21:20	72.3	72.3	72.3	84	67.2	1	3	248	0.00	30.001 
21:25	72.0	72.0	72.0	83	66.5	1	3	248	0.00	30.001 
21:30	72.0	72.0	72.0	82	66.2	1	3	248	0.00	29.990 
21:35	72.3	72.3	72.3	82	66.5	3	6	292	0.00	29.990 
21:40	72.3	72.3	72.3	83	66.8	2	6	270	0.00	29.990 
21:45	72.1	72.1	72.1	83	66.6	1	4	315	0.00	30.008 
21:50	72.0	72.0	72.0	83	66.5	2	5	292	0.00	30.008 
21:55	72.0	72.0	72.0	83	66.5	2	3	292	0.00	30.008 
22:00	72.0	72.0	72.0	83	66.5	1	4	315	0.00	30.003 
22:05	72.1	72.1	72.1	83	66.6	1	3	270	0.00	30.003 
22:10	72.1	72.1	72.1	83	66.6	1	2	270	0.00	30.003 
22:15	72.1	72.1	72.1	83	66.6	1	3	270	0.00	30.006 
22:20	72.1	72.1	72.1	83	66.6	1	4	270	0.00	30.006 
22:25	72.1	72.1	72.1	83	66.6	1	3	270	0.00	30.006 
22:30	72.1	72.1	72.1	83	66.6	1	3	270	0.00	30.017 
22:35	72.1	72.1	72.1	83	66.6	2	4	270	0.00	30.017 
22:40	72.3	72.3	72.3	83	66.8	2	4	270	0.00	30.017 
22:45	72.3	72.3	72.3	82	66.5	1	3	270	0.00	30.024 
22:50	72.3	72.3	72.3	81	66.1	1	4	270	0.00	30.024 
22:55	72.5	72.5	72.5	81	66.3	1	3	270	0.00	30.024 
23:00	72.5	72.5	72.5	81	66.3	1	3	270	0.00	30.030 
23:05	72.5	72.5	72.5	81	66.3	0	2	270	0.00	30.030 
23:10	72.5	72.5	72.5	81	66.3	0	2	270	0.00	30.030 
23:15	72.5	72.5	72.5	81	66.3	1	3	270	0.00	30.029 
23:20	72.5	72.5	72.5	82	66.7	0	2	270	0.00	30.029 
23:25	72.5	72.5	72.5	82	66.7	0	3	270	0.00	30.029 
23:30	72.5	72.5	72.5	83	67.0	0	3	270	0.00	30.034 
23:35	72.5	72.5	72.5	83	67.0	0	2	270	0.00	30.034 
23:40	72.5	72.5	72.5	83	67.0	0	2	270	0.00	30.034 
23:45	72.5	72.5	72.5	83	67.0	0	3	270	0.00	30.046 
23:50	72.3	72.3	72.3	84	67.2	1	3	270	0.00	30.046 
23:55	72.3	72.3	72.3	84	67.2	1	4	270	0.00	30.046 

CoCoRaHS
IN-AL-39
A2 Web Hosting
Creative Commons License
GoDaddy
search engine by freefind advanced

loaded 2018-11-20 14:45:21 • last modified 2010-11-18 10:43:29
Privacy PolicyDisclaimer
• wx.awcolley.com is powered by PmWiki v.2002016 •
• all content (unless otherwise noted) © 2018 A W Colley